sensor_id;sensor_type;location;lat;lon;timestamp;pressure;altitude;pressure_sealevel;temperature;humidity
10480;BME280;12789;42.610;23.040;2023-02-22T13:01:41;58291.84;;;-141.29;100.00
10480;BME280;12789;42.610;23.040;2023-02-22T13:04:13;93308.19;;;23.64;30.64
10480;BME280;12789;42.610;23.040;2023-02-22T13:07:06;93307.25;;;23.93;30.34
10480;BME280;12789;42.610;23.040;2023-02-22T13:10:02;93309.31;;;23.04;31.15
10480;BME280;12789;42.610;23.040;2023-02-22T13:12:41;93291.81;;;24.13;30.01
10480;BME280;12789;42.610;23.040;2023-02-22T13:15:18;93319.41;;;22.37;30.67
10480;BME280;12789;42.610;23.040;2023-02-22T13:18:08;93314.50;;;21.87;31.31
10480;BME280;12789;42.610;23.040;2023-02-22T13:20:44;93305.59;;;20.90;32.64
10480;BME280;12789;42.610;23.040;2023-02-22T13:23:35;93298.28;;;23.94;29.53
10480;BME280;12789;42.610;23.040;2023-02-22T13:26:17;93303.16;;;21.86;31.71
10480;BME280;12789;42.610;23.040;2023-02-22T13:28:49;93307.88;;;21.11;32.69
10480;BME280;12789;42.610;23.040;2023-02-22T13:31:52;93288.03;;;21.75;31.17
10480;BME280;12789;42.610;23.040;2023-02-22T13:34:52;93288.16;;;24.42;29.34
10480;BME280;12789;42.610;23.040;2023-02-22T13:38:03;93293.84;;;22.02;31.35
10480;BME280;12789;42.610;23.040;2023-02-22T13:44:05;93256.03;;;23.76;31.08
10480;BME280;12789;42.610;23.040;2023-02-22T13:49:58;93281.53;;;22.61;31.61
10480;BME280;12789;42.610;23.040;2023-02-22T13:52:33;93259.50;;;23.65;30.77
10480;BME280;12789;42.610;23.040;2023-02-22T14:16:21;93293.97;;;22.72;32.14
10480;BME280;12789;42.610;23.040;2023-02-22T14:18:59;93297.94;;;23.56;30.98
10480;BME280;12789;42.610;23.040;2023-02-22T14:21:37;93289.97;;;22.34;32.59
10480;BME280;12789;42.610;23.040;2023-02-22T14:24:18;93304.28;;;23.90;30.55
10480;BME280;12789;42.610;23.040;2023-02-22T14:26:54;93286.47;;;22.22;32.14
10480;BME280;12789;42.610;23.040;2023-02-22T14:29:22;93282.41;;;22.84;32.04
10480;BME280;12789;42.610;23.040;2023-02-22T14:31:59;93287.91;;;23.47;31.14
10480;BME280;12789;42.610;23.040;2023-02-22T14:34:45;93294.19;;;23.11;31.70
10480;BME280;12789;42.610;23.040;2023-02-22T14:37:17;93289.50;;;23.25;30.71
10480;BME280;12789;42.610;23.040;2023-02-22T14:39:50;93292.66;;;22.16;32.59
10480;BME280;12789;42.610;23.040;2023-02-22T14:42:22;93294.63;;;22.68;31.60
10480;BME280;12789;42.610;23.040;2023-02-22T14:44:58;93293.81;;;21.84;33.01
10480;BME280;12789;42.610;23.040;2023-02-22T14:47:34;93300.00;;;22.61;32.79
10480;BME280;12789;42.610;23.040;2023-02-22T14:50:12;93287.59;;;22.62;31.90
10480;BME280;12789;42.610;23.040;2023-02-22T14:52:42;93305.78;;;22.40;32.80
10480;BME280;12789;42.610;23.040;2023-02-22T14:55:17;93302.97;;;20.90;34.33
10480;BME280;12789;42.610;23.040;2023-02-22T14:58:04;93290.66;;;21.75;33.62
10480;BME280;12789;42.610;23.040;2023-02-22T15:00:41;93292.69;;;20.82;34.52
10480;BME280;12789;42.610;23.040;2023-02-22T15:03:26;93267.09;;;20.21;35.44
10480;BME280;12789;42.610;23.040;2023-02-22T15:06:03;93262.81;;;20.26;35.38
10480;BME280;12789;42.610;23.040;2023-02-22T15:08:32;93271.09;;;20.61;35.28
10480;BME280;12789;42.610;23.040;2023-02-22T15:11:03;93286.50;;;20.64;35.30
10480;BME280;12789;42.610;23.040;2023-02-22T15:13:30;93293.41;;;19.70;36.29
10480;BME280;12789;42.610;23.040;2023-02-22T15:16:05;93292.22;;;21.16;34.16
10480;BME280;12789;42.610;23.040;2023-02-22T15:18:45;93292.50;;;22.11;32.78
10480;BME280;12789;42.610;23.040;2023-02-22T15:21:15;93292.72;;;22.09;32.88
10480;BME280;12789;42.610;23.040;2023-02-22T15:23:45;93298.34;;;20.79;34.38
10480;BME280;12789;42.610;23.040;2023-02-22T15:26:18;93277.41;;;20.60;34.92
10480;BME280;12789;42.610;23.040;2023-02-22T15:28:52;93267.34;;;19.43;35.63
10480;BME280;12789;42.610;23.040;2023-02-22T15:31:28;93286.78;;;20.12;35.19
10480;BME280;12789;42.610;23.040;2023-02-22T15:34:09;93311.09;;;20.07;35.88
10480;BME280;12789;42.610;23.040;2023-02-22T15:36:40;93287.06;;;19.84;35.86
10480;BME280;12789;42.610;23.040;2023-02-22T15:39:18;93290.63;;;18.94;37.34
10480;BME280;12789;42.610;23.040;2023-02-22T15:41:45;93318.50;;;18.76;37.74
10480;BME280;12789;42.610;23.040;2023-02-22T15:44:12;93294.03;;;18.82;37.85
10480;BME280;12789;42.610;23.040;2023-02-22T17:27:24;93438.25;;;10.98;60.59
10480;BME280;12789;42.610;23.040;2023-02-22T17:30:30;93407.41;;;10.70;61.86
10480;BME280;12789;42.610;23.040;2023-02-22T17:33:00;93394.09;;;10.65;62.66
10480;BME280;12789;42.610;23.040;2023-02-22T17:35:52;93416.13;;;10.86;62.60
10480;BME280;12789;42.610;23.040;2023-02-22T17:38:38;93413.19;;;10.81;62.34
10480;BME280;12789;42.610;23.040;2023-02-22T17:41:06;93404.84;;;10.52;62.97
10480;BME280;12789;42.610;23.040;2023-02-22T17:43:51;93415.66;;;10.65;62.91
10480;BME280;12789;42.610;23.040;2023-02-22T17:46:29;93410.03;;;10.52;63.03
10480;BME280;12789;42.610;23.040;2023-02-22T17:49:19;93419.81;;;9.79;66.25
10480;BME280;12789;42.610;23.040;2023-02-22T17:52:00;93410.63;;;10.12;66.60
10480;BME280;12789;42.610;23.040;2023-02-22T17:55:06;93456.22;;;10.39;65.56
10480;BME280;12789;42.610;23.040;2023-02-22T17:57:55;93417.91;;;9.99;67.09
10480;BME280;12789;42.610;23.040;2023-02-22T18:07:36;93405.69;;;9.47;67.55
10480;BME280;12789;42.610;23.040;2023-02-22T18:10:13;58291.84;;;-141.29;100.00
10480;BME280;12789;42.610;23.040;2023-02-22T18:13:08;58291.84;;;-141.29;100.00
10480;BME280;12789;42.610;23.040;2023-02-22T18:16:24;58291.84;;;-141.29;100.00
10480;BME280;12789;42.610;23.040;2023-02-22T18:19:32;58291.84;;;-141.29;100.00
10480;BME280;12789;42.610;23.040;2023-02-22T18:22:15;58291.84;;;-141.29;100.00
10480;BME280;12789;42.610;23.040;2023-02-22T18:24:56;93435.56;;;9.22;73.04
10480;BME280;12789;42.610;23.040;2023-02-22T18:27:40;58291.84;;;-141.29;100.00
10480;BME280;12789;42.610;23.040;2023-02-22T18:30:27;58291.84;;;-141.29;100.00
10480;BME280;12789;42.610;23.040;2023-02-22T18:33:24;93435.56;;;9.22;73.04
10480;BME280;12789;42.610;23.040;2023-02-22T18:36:25;58291.84;;;-141.29;100.00
10480;BME280;12789;42.610;23.040;2023-02-22T18:39:48;58291.84;;;-141.29;100.00
10480;BME280;12789;42.610;23.040;2023-02-22T18:42:20;58291.84;;;-141.29;100.00
10480;BME280;12789;42.610;23.040;2023-02-22T18:44:55;58291.84;;;-141.29;100.00
10480;BME280;12789;42.610;23.040;2023-02-22T18:47:25;58291.84;;;-141.29;100.00
10480;BME280;12789;42.610;23.040;2023-02-22T18:49:58;58291.84;;;-141.29;100.00
10480;BME280;12789;42.610;23.040;2023-02-22T18:52:26;58291.84;;;-141.29;100.00
10480;BME280;12789;42.610;23.040;2023-02-22T18:55:12;58291.84;;;-141.29;100.00
10480;BME280;12789;42.610;23.040;2023-02-22T18:57:40;58291.84;;;-141.29;100.00
10480;BME280;12789;42.610;23.040;2023-02-22T19:00:18;58291.84;;;-141.29;100.00
10480;BME280;12789;42.610;23.040;2023-02-22T19:02:50;58291.84;;;-141.29;100.00
10480;BME280;12789;42.610;23.040;2023-02-22T19:05:18;58291.84;;;-141.29;100.00
10480;BME280;12789;42.610;23.040;2023-02-22T19:07:46;58291.84;;;-141.29;100.00
10480;BME280;12789;42.610;23.040;2023-02-22T19:10:17;58291.84;;;-141.29;100.00
10480;BME280;12789;42.610;23.040;2023-02-22T19:12:46;58291.84;;;-141.29;100.00
10480;BME280;12789;42.610;23.040;2023-02-22T19:15:16;58291.84;;;-141.29;100.00
10480;BME280;12789;42.610;23.040;2023-02-22T19:17:43;58291.84;;;-141.29;100.00
10480;BME280;12789;42.610;23.040;2023-02-22T19:20:11;58291.84;;;-141.29;100.00
10480;BME280;12789;42.610;23.040;2023-02-22T19:22:38;58291.84;;;-141.29;100.00
10480;BME280;12789;42.610;23.040;2023-02-22T19:25:06;58291.84;;;-141.29;100.00
10480;BME280;12789;42.610;23.040;2023-02-22T19:27:33;58291.84;;;-141.29;100.00
10480;BME280;12789;42.610;23.040;2023-02-22T19:30:00;58291.84;;;-141.29;100.00
10480;BME280;12789;42.610;23.040;2023-02-22T19:32:29;58291.84;;;-141.29;100.00
10480;BME280;12789;42.610;23.040;2023-02-22T19:34:57;58291.84;;;-141.29;100.00
10480;BME280;12789;42.610;23.040;2023-02-22T19:37:31;58291.84;;;-141.29;100.00
10480;BME280;12789;42.610;23.040;2023-02-22T19:39:59;58291.84;;;-141.29;100.00
10480;BME280;12789;42.610;23.040;2023-02-22T19:42:28;58291.84;;;-141.29;100.00
10480;BME280;12789;42.610;23.040;2023-02-22T19:44:55;58291.84;;;-141.29;100.00
10480;BME280;12789;42.610;23.040;2023-02-22T19:47:22;58291.84;;;-141.29;100.00
10480;BME280;12789;42.610;23.040;2023-02-22T19:49:49;58291.84;;;-141.29;100.00
10480;BME280;12789;42.610;23.040;2023-02-22T19:52:15;58291.84;;;-141.29;100.00
10480;BME280;12789;42.610;23.040;2023-02-22T19:54:43;58291.84;;;-141.29;100.00
10480;BME280;12789;42.610;23.040;2023-02-22T19:57:10;58291.84;;;-141.29;100.00
10480;BME280;12789;42.610;23.040;2023-02-22T19:59:39;58291.84;;;-141.29;100.00
10480;BME280;12789;42.610;23.040;2023-02-22T20:02:09;58291.84;;;-141.29;100.00
10480;BME280;12789;42.610;23.040;2023-02-22T20:04:43;58291.84;;;-141.29;100.00
10480;BME280;12789;42.610;23.040;2023-02-22T20:07:14;58291.84;;;-141.29;100.00
10480;BME280;12789;42.610;23.040;2023-02-22T20:09:41;58291.84;;;-141.29;100.00
10480;BME280;12789;42.610;23.040;2023-02-22T20:12:08;58291.84;;;-141.29;100.00
10480;BME280;12789;42.610;23.040;2023-02-22T20:14:34;58291.84;;;-141.29;100.00
10480;BME280;12789;42.610;23.040;2023-02-22T20:17:04;58291.84;;;-141.29;100.00
10480;BME280;12789;42.610;23.040;2023-02-22T20:19:32;58291.84;;;-141.29;100.00
10480;BME280;12789;42.610;23.040;2023-02-22T20:22:01;58291.84;;;-141.29;100.00
10480;BME280;12789;42.610;23.040;2023-02-22T20:24:28;58291.84;;;-141.29;100.00
10480;BME280;12789;42.610;23.040;2023-02-22T20:26:55;58291.84;;;-141.29;100.00
10480;BME280;12789;42.610;23.040;2023-02-22T20:29:23;58291.84;;;-141.29;100.00
10480;BME280;12789;42.610;23.040;2023-02-22T20:31:54;58291.84;;;-141.29;100.00
10480;BME280;12789;42.610;23.040;2023-02-22T20:34:22;58291.84;;;-141.29;100.00
10480;BME280;12789;42.610;23.040;2023-02-22T20:36:51;58291.84;;;-141.29;100.00
10480;BME280;12789;42.610;23.040;2023-02-22T20:39:18;58291.84;;;-141.29;100.00
10480;BME280;12789;42.610;23.040;2023-02-22T20:41:45;58291.84;;;-141.29;100.00
10480;BME280;12789;42.610;23.040;2023-02-22T20:44:15;58291.84;;;-141.29;100.00
10480;BME280;12789;42.610;23.040;2023-02-22T20:46:42;58291.84;;;-141.29;100.00
10480;BME280;12789;42.610;23.040;2023-02-22T20:49:11;58291.84;;;-141.29;100.00
10480;BME280;12789;42.610;23.040;2023-02-22T20:51:40;58291.84;;;-141.29;100.00
10480;BME280;12789;42.610;23.040;2023-02-22T20:54:07;58291.84;;;-141.29;100.00
10480;BME280;12789;42.610;23.040;2023-02-22T20:56:37;58291.84;;;-141.29;100.00
10480;BME280;12789;42.610;23.040;2023-02-22T20:59:05;58291.84;;;-141.29;100.00
10480;BME280;12789;42.610;23.040;2023-02-22T21:01:31;58291.84;;;-141.29;100.00
10480;BME280;12789;42.610;23.040;2023-02-22T21:03:59;58291.84;;;-141.29;100.00
10480;BME280;12789;42.610;23.040;2023-02-22T21:06:26;58291.84;;;-141.29;100.00
10480;BME280;12789;42.610;23.040;2023-02-22T21:08:56;58291.84;;;-141.29;100.00
10480;BME280;12789;42.610;23.040;2023-02-22T21:11:26;58291.84;;;-141.29;100.00
10480;BME280;12789;42.610;23.040;2023-02-22T21:13:55;58291.84;;;-141.29;100.00
10480;BME280;12789;42.610;23.040;2023-02-22T21:16:24;58291.84;;;-141.29;100.00
10480;BME280;12789;42.610;23.040;2023-02-22T21:18:52;58291.84;;;-141.29;100.00
10480;BME280;12789;42.610;23.040;2023-02-22T21:21:19;58291.84;;;-141.29;100.00
10480;BME280;12789;42.610;23.040;2023-02-22T21:23:48;58291.84;;;-141.29;100.00
10480;BME280;12789;42.610;23.040;2023-02-22T21:26:18;58291.84;;;-141.29;100.00
10480;BME280;12789;42.610;23.040;2023-02-22T21:28:47;58291.84;;;-141.29;100.00
10480;BME280;12789;42.610;23.040;2023-02-22T21:31:14;58291.84;;;-141.29;100.00
10480;BME280;12789;42.610;23.040;2023-02-22T21:33:41;58291.84;;;-141.29;100.00
10480;BME280;12789;42.610;23.040;2023-02-22T21:36:10;58291.84;;;-141.29;100.00
10480;BME280;12789;42.610;23.040;2023-02-22T21:38:55;58291.84;;;-141.29;100.00
10480;BME280;12789;42.610;23.040;2023-02-22T21:41:26;58291.84;;;-141.29;100.00
10480;BME280;12789;42.610;23.040;2023-02-22T21:43:54;58291.84;;;-141.29;100.00
10480;BME280;12789;42.610;23.040;2023-02-22T21:46:21;58291.84;;;-141.29;100.00
10480;BME280;12789;42.610;23.040;2023-02-22T21:48:48;58291.84;;;-141.29;100.00
10480;BME280;12789;42.610;23.040;2023-02-22T21:51:17;58291.84;;;-141.29;100.00
10480;BME280;12789;42.610;23.040;2023-02-22T21:53:45;58291.84;;;-141.29;100.00
10480;BME280;12789;42.610;23.040;2023-02-22T21:56:14;58291.84;;;-141.29;100.00
10480;BME280;12789;42.610;23.040;2023-02-22T21:58:45;58291.84;;;-141.29;100.00
10480;BME280;12789;42.610;23.040;2023-02-22T22:01:12;58291.84;;;-141.29;100.00
10480;BME280;12789;42.610;23.040;2023-02-22T22:03:42;58291.84;;;-141.29;100.00
10480;BME280;12789;42.610;23.040;2023-02-22T22:06:09;58291.84;;;-141.29;100.00
10480;BME280;12789;42.610;23.040;2023-02-22T22:08:38;58291.84;;;-141.29;100.00
10480;BME280;12789;42.610;23.040;2023-02-22T22:11:06;58291.84;;;-141.29;100.00
10480;BME280;12789;42.610;23.040;2023-02-22T22:13:35;58291.84;;;-141.29;100.00
10480;BME280;12789;42.610;23.040;2023-02-22T22:16:05;58291.84;;;-141.29;100.00
10480;BME280;12789;42.610;23.040;2023-02-22T22:18:34;58291.84;;;-141.29;100.00
10480;BME280;12789;42.610;23.040;2023-02-22T22:21:08;58291.84;;;-141.29;100.00
10480;BME280;12789;42.610;23.040;2023-02-22T22:23:37;58291.84;;;-141.29;100.00
10480;BME280;12789;42.610;23.040;2023-02-22T22:26:05;58291.84;;;-141.29;100.00
10480;BME280;12789;42.610;23.040;2023-02-22T22:28:37;58291.84;;;-141.29;100.00
10480;BME280;12789;42.610;23.040;2023-02-22T22:31:14;58291.84;;;-141.29;100.00
10480;BME280;12789;42.610;23.040;2023-02-22T22:33:43;58291.84;;;-141.29;100.00
10480;BME280;12789;42.610;23.040;2023-02-22T22:36:12;58291.84;;;-141.29;100.00
10480;BME280;12789;42.610;23.040;2023-02-22T22:38:39;58291.84;;;-141.29;100.00
10480;BME280;12789;42.610;23.040;2023-02-22T22:41:09;58291.84;;;-141.29;100.00
10480;BME280;12789;42.610;23.040;2023-02-22T22:43:38;58291.84;;;-141.29;100.00
10480;BME280;12789;42.610;23.040;2023-02-22T22:46:08;58291.84;;;-141.29;100.00
10480;BME280;12789;42.610;23.040;2023-02-22T22:48:36;58291.84;;;-141.29;100.00
10480;BME280;12789;42.610;23.040;2023-02-22T22:51:05;58291.84;;;-141.29;100.00
10480;BME280;12789;42.610;23.040;2023-02-22T22:53:36;58291.84;;;-141.29;100.00
10480;BME280;12789;42.610;23.040;2023-02-22T22:56:06;58291.84;;;-141.29;100.00
10480;BME280;12789;42.610;23.040;2023-02-22T22:58:39;58291.84;;;-141.29;100.00
10480;BME280;12789;42.610;23.040;2023-02-22T23:01:07;58291.84;;;-141.29;100.00
10480;BME280;12789;42.610;23.040;2023-02-22T23:03:42;58291.84;;;-141.29;100.00
10480;BME280;12789;42.610;23.040;2023-02-22T23:06:13;58291.84;;;-141.29;100.00
10480;BME280;12789;42.610;23.040;2023-02-22T23:08:40;58291.84;;;-141.29;100.00
10480;BME280;12789;42.610;23.040;2023-02-22T23:11:09;58291.84;;;-141.29;100.00
10480;BME280;12789;42.610;23.040;2023-02-22T23:13:37;58291.84;;;-141.29;100.00
10480;BME280;12789;42.610;23.040;2023-02-22T23:16:08;58291.84;;;-141.29;100.00
10480;BME280;12789;42.610;23.040;2023-02-22T23:18:37;58291.84;;;-141.29;100.00
10480;BME280;12789;42.610;23.040;2023-02-22T23:21:07;58291.84;;;-141.29;100.00
10480;BME280;12789;42.610;23.040;2023-02-22T23:23:35;58291.84;;;-141.29;100.00
10480;BME280;12789;42.610;23.040;2023-02-22T23:26:03;58291.84;;;-141.29;100.00
10480;BME280;12789;42.610;23.040;2023-02-22T23:28:37;58291.84;;;-141.29;100.00
10480;BME280;12789;42.610;23.040;2023-02-22T23:31:10;58291.84;;;-141.29;100.00
10480;BME280;12789;42.610;23.040;2023-02-22T23:33:38;58291.84;;;-141.29;100.00
10480;BME280;12789;42.610;23.040;2023-02-22T23:36:06;58291.84;;;-141.29;100.00
10480;BME280;12789;42.610;23.040;2023-02-22T23:38:34;58291.84;;;-141.29;100.00
10480;BME280;12789;42.610;23.040;2023-02-22T23:41:02;58291.84;;;-141.29;100.00
10480;BME280;12789;42.610;23.040;2023-02-22T23:43:29;58291.84;;;-141.29;100.00
10480;BME280;12789;42.610;23.040;2023-02-22T23:46:00;58291.84;;;-141.29;100.00
10480;BME280;12789;42.610;23.040;2023-02-22T23:48:28;58291.84;;;-141.29;100.00
10480;BME280;12789;42.610;23.040;2023-02-22T23:50:55;58291.84;;;-141.29;100.00
10480;BME280;12789;42.610;23.040;2023-02-22T23:53:24;58291.84;;;-141.29;100.00
10480;BME280;12789;42.610;23.040;2023-02-22T23:55:54;58291.84;;;-141.29;100.00
10480;BME280;12789;42.610;23.040;2023-02-22T23:58:22;58291.84;;;-141.29;100.00
